Time,TemperatureF,DewpointF,PressureIn,WindDirection,WindDirectionDegrees,WindSpeedMPH,WindSpeedGustMPH,Humidity,HourlyPrecipIn,Conditions,Clouds,dailyrainin,SoftwareType,DateUTC
2013-12-29 00:00:00,70.6,69.1,29.90,ESE,119,1.0,9.0,95,0.00,,,0.00,VWS V14.01,2013-12-29 05:00:00,
2013-12-29 00:01:00,70.8,69.0,29.91,SE,124,4.0,4.0,94,0.00,,,0.00,VWS V14.01,2013-12-29 05:01:00,
2013-12-29 00:06:00,70.6,68.8,29.91,ESE,117,2.0,7.0,94,0.00,,,0.00,VWS V14.01,2013-12-29 05:06:00,
2013-12-29 00:11:00,70.6,68.8,29.91,ENE,78,2.0,7.0,94,0.00,,,0.00,VWS V14.01,2013-12-29 05:11:00,
2013-12-29 00:16:00,70.6,68.8,29.91,East,98,4.0,7.0,94,0.00,,,0.00,VWS V14.01,2013-12-29 05:16:00,
2013-12-29 00:21:00,70.6,68.8,29.91,ESE,108,4.0,7.0,94,0.00,,,0.00,VWS V14.01,2013-12-29 05:21:00,
2013-12-29 00:26:00,70.6,68.8,29.91,ESE,122,2.0,7.0,94,0.00,,,0.00,VWS V14.01,2013-12-29 05:26:00,
2013-12-29 00:30:00,70.3,68.8,29.89,ESE,111,2.0,7.0,95,0.00,,,0.00,VWS V14.01,2013-12-29 05:30:00,
2013-12-29 00:31:00,70.6,69.1,29.91,SE,143,3.0,9.0,95,0.00,,,0.00,VWS V14.01,2013-12-29 05:31:00,
2013-12-29 00:36:00,70.6,69.1,29.91,SE,128,4.0,9.0,95,0.00,,,0.00,VWS V14.01,2013-12-29 05:36:00,
2013-12-29 00:41:00,70.6,69.1,29.91,SE,138,3.0,9.0,95,0.00,,,0.00,VWS V14.01,2013-12-29 05:41:00,
2013-12-29 00:46:00,70.6,69.1,29.90,SE,134,3.0,9.0,95,0.00,,,0.00,VWS V14.01,2013-12-29 05:46:00,
2013-12-29 00:51:00,70.6,69.1,29.90,SE,136,3.0,9.0,95,0.00,,,0.00,VWS V14.01,2013-12-29 05:51:00,
2013-12-29 00:56:00,70.6,69.1,29.90,ESE,121,2.0,9.0,95,0.00,,,0.00,VWS V14.01,2013-12-29 05:56:00,
2013-12-29 01:00:00,70.1,68.9,29.89,SE,140,1.0,7.0,96,0.00,,,0.00,VWS V14.01,2013-12-29 06:00:00,
2013-12-29 01:01:00,70.4,68.9,29.90,ESE,120,0.0,1.0,95,0.00,,,0.00,VWS V14.01,2013-12-29 06:01:00,
2013-12-29 01:06:00,70.4,68.9,29.90,SE,129,0.0,6.0,95,0.00,,,0.00,VWS V14.01,2013-12-29 06:06:00,
2013-12-29 01:11:00,70.4,68.9,29.90,ESE,122,3.0,7.0,95,0.00,,,0.00,VWS V14.01,2013-12-29 06:11:00,
2013-12-29 01:16:00,70.3,68.8,29.89,ESE,123,6.0,7.0,95,0.00,,,0.00,VWS V14.01,2013-12-29 06:16:00,
2013-12-29 01:21:00,70.3,68.8,29.89,SE,131,3.0,7.0,95,0.00,,,0.00,VWS V14.01,2013-12-29 06:21:00,
2013-12-29 01:26:00,70.3,68.8,29.89,SE,128,1.0,7.0,95,0.00,,,0.00,VWS V14.01,2013-12-29 06:26:00,
2013-12-29 01:30:00,70.1,68.9,29.88,SE,126,0.0,4.0,96,0.00,,,0.00,VWS V14.01,2013-12-29 06:30:00,
2013-12-29 01:31:00,70.3,68.8,29.89,ESE,112,2.0,4.0,95,0.00,,,0.00,VWS V14.01,2013-12-29 06:31:00,
2013-12-29 01:36:00,70.3,69.1,29.89,SE,128,1.0,6.0,96,0.00,,,0.00,VWS V14.01,2013-12-29 06:36:00,
2013-12-29 01:41:00,70.3,69.1,29.89,ESE,116,3.0,6.0,96,0.00,,,0.00,VWS V14.01,2013-12-29 06:41:00,
2013-12-29 01:46:00,70.1,68.9,29.89,East,91,2.0,6.0,96,0.00,,,0.00,VWS V14.01,2013-12-29 06:46:00,
2013-12-29 01:51:00,70.1,68.9,29.89,SE,145,1.0,6.0,96,0.00,,,0.00,VWS V14.01,2013-12-29 06:51:00,
2013-12-29 01:56:00,70.1,68.9,29.89,SE,139,6.0,7.0,96,0.00,,,0.00,VWS V14.01,2013-12-29 06:56:00,
2013-12-29 02:00:00,70.1,69.2,29.86,SE,128,3.0,5.0,97,0.00,,,0.00,VWS V14.01,2013-12-29 07:00:00,
2013-12-29 02:01:00,70.1,68.9,29.89,SE,140,0.0,0.0,96,0.00,,,0.00,VWS V14.01,2013-12-29 07:01:00,
2013-12-29 02:06:00,70.3,69.1,29.89,SE,138,2.0,4.0,96,0.00,,,0.00,VWS V14.01,2013-12-29 07:06:00,
2013-12-29 02:11:00,70.3,69.1,29.89,SE,140,4.0,4.0,96,0.00,,,0.00,VWS V14.01,2013-12-29 07:11:00,
2013-12-29 02:16:00,70.1,68.9,29.88,SE,140,2.0,4.0,96,0.00,,,0.00,VWS V14.01,2013-12-29 07:16:00,
2013-12-29 02:21:00,70.1,68.9,29.88,SE,138,0.0,4.0,96,0.00,,,0.00,VWS V14.01,2013-12-29 07:21:00,
2013-12-29 02:26:00,70.1,68.9,29.88,SE,126,3.0,4.0,96,0.00,,,0.00,VWS V14.01,2013-12-29 07:26:00,
2013-12-29 02:30:00,70.3,69.4,29.85,SE,144,0.0,6.0,97,0.00,,,0.00,VWS V14.01,2013-12-29 07:30:00,
2013-12-29 02:31:00,70.1,68.9,29.88,ESE,123,2.0,3.0,96,0.00,,,0.00,VWS V14.01,2013-12-29 07:31:00,
2013-12-29 02:36:00,70.1,68.9,29.88,ESE,121,2.0,4.0,96,0.00,,,0.00,VWS V14.01,2013-12-29 07:36:00,
2013-12-29 02:41:00,70.1,68.9,29.88,SE,134,0.0,5.0,96,0.00,,,0.00,VWS V14.01,2013-12-29 07:41:00,
2013-12-29 02:46:00,70.1,69.2,29.86,SE,134,0.0,5.0,97,0.00,,,0.00,VWS V14.01,2013-12-29 07:46:00,
2013-12-29 02:51:00,70.1,69.2,29.86,SE,131,3.0,5.0,97,0.00,,,0.00,VWS V14.01,2013-12-29 07:51:00,
2013-12-29 02:56:00,70.1,69.2,29.86,SE,132,4.0,5.0,97,0.00,,,0.00,VWS V14.01,2013-12-29 07:56:00,
2013-12-29 03:00:00,70.3,69.7,29.84,SE,138,0.0,6.0,98,0.00,,,0.00,VWS V14.01,2013-12-29 08:00:00,
2013-12-29 03:01:00,70.1,69.2,29.86,SSE,150,4.0,6.0,97,0.00,,,0.00,VWS V14.01,2013-12-29 08:01:00,
2013-12-29 03:06:00,70.1,69.2,29.86,ESE,123,3.0,6.0,97,0.00,,,0.00,VWS V14.01,2013-12-29 08:06:00,
2013-12-29 03:11:00,70.1,69.2,29.86,ESE,112,0.0,6.0,97,0.00,,,0.00,VWS V14.01,2013-12-29 08:11:00,
2013-12-29 03:16:00,70.3,69.4,29.85,ESE,116,2.0,6.0,97,0.00,,,0.00,VWS V14.01,2013-12-29 08:16:00,
2013-12-29 03:21:00,70.3,69.4,29.85,ESE,118,2.0,6.0,97,0.00,,,0.00,VWS V14.01,2013-12-29 08:21:00,
2013-12-29 03:26:00,70.3,69.4,29.85,ESE,119,3.0,6.0,97,0.00,,,0.00,VWS V14.01,2013-12-29 08:26:00,
2013-12-29 03:30:00,70.6,70.0,29.83,SSW,202,3.0,10.0,98,0.00,,,0.00,VWS V14.01,2013-12-29 08:30:00,
2013-12-29 03:31:00,70.3,69.4,29.85,South,182,4.0,6.0,97,0.00,,,0.00,VWS V14.01,2013-12-29 08:31:00,
2013-12-29 03:36:00,70.3,69.4,29.85,SE,132,2.0,6.0,97,0.00,,,0.00,VWS V14.01,2013-12-29 08:36:00,
2013-12-29 03:41:00,70.3,69.4,29.85,SE,145,0.0,6.0,97,0.00,,,0.00,VWS V14.01,2013-12-29 08:41:00,
2013-12-29 03:46:00,70.3,69.4,29.85,SSE,149,0.0,6.0,97,0.00,,,0.00,VWS V14.01,2013-12-29 08:46:00,
2013-12-29 03:51:00,70.3,69.4,29.85,SE,135,2.0,6.0,97,0.00,,,0.00,VWS V14.01,2013-12-29 08:51:00,
2013-12-29 03:56:00,70.3,69.4,29.85,SE,136,0.0,6.0,97,0.00,,,0.00,VWS V14.01,2013-12-29 08:56:00,
2013-12-29 04:00:00,71.3,70.7,29.84,SE,136,3.0,12.0,98,0.00,,,0.00,VWS V14.01,2013-12-29 09:00:00,
2013-12-29 04:01:00,70.3,69.7,29.84,SE,139,0.0,0.0,98,0.00,,,0.00,VWS V14.01,2013-12-29 09:01:00,
2013-12-29 04:06:00,70.3,69.7,29.84,SE,132,2.0,6.0,98,0.00,,,0.00,VWS V14.01,2013-12-29 09:06:00,
2013-12-29 04:11:00,70.3,69.7,29.84,SE,131,3.0,7.0,98,0.00,,,0.00,VWS V14.01,2013-12-29 09:11:00,
2013-12-29 04:16:00,70.3,69.7,29.83,SSE,161,2.0,9.0,98,0.00,,,0.00,VWS V14.01,2013-12-29 09:16:00,
2013-12-29 04:21:00,70.4,69.8,29.83,SSE,161,4.0,9.0,98,0.00,,,0.00,VWS V14.01,2013-12-29 09:21:00,
2013-12-29 04:26:00,70.4,69.8,29.83,SE,142,2.0,10.0,98,0.00,,,0.00,VWS V14.01,2013-12-29 09:26:00,
2013-12-29 04:30:00,72.1,70.6,29.85,SSW,196,3.0,14.0,95,0.00,,,0.00,VWS V14.01,2013-12-29 09:30:00,
2013-12-29 04:31:00,70.6,70.0,29.83,SSE,149,4.0,4.0,98,0.00,,,0.00,VWS V14.01,2013-12-29 09:31:00,
2013-12-29 04:36:00,70.6,70.0,29.83,ESE,112,1.0,7.0,98,0.00,,,0.00,VWS V14.01,2013-12-29 09:36:00,
2013-12-29 04:41:00,70.6,70.0,29.83,SSE,149,4.0,10.0,98,0.00,,,0.00,VWS V14.01,2013-12-29 09:41:00,
2013-12-29 04:46:00,70.8,70.2,29.83,SE,142,4.0,10.0,98,0.00,,,0.00,VWS V14.01,2013-12-29 09:46:00,
2013-12-29 04:51:00,70.9,70.3,29.83,SE,127,6.0,10.0,98,0.00,,,0.00,VWS V14.01,2013-12-29 09:51:00,
2013-12-29 04:56:00,71.1,70.5,29.83,SE,126,5.0,12.0,98,0.00,,,0.00,VWS V14.01,2013-12-29 09:56:00,
2013-12-29 05:00:00,72.1,70.6,29.87,South,184,2.0,12.0,95,0.00,,,0.00,VWS V14.01,2013-12-29 10:00:00,
2013-12-29 05:01:00,71.3,70.7,29.84,SSE,157,4.0,6.0,98,0.00,,,0.00,VWS V14.01,2013-12-29 10:01:00,
2013-12-29 05:06:00,71.5,70.6,29.84,South,178,6.0,14.0,97,0.00,,,0.00,VWS V14.01,2013-12-29 10:06:00,
2013-12-29 05:11:00,71.6,70.7,29.84,SSE,157,5.0,14.0,97,0.00,,,0.00,VWS V14.01,2013-12-29 10:11:00,
2013-12-29 05:16:00,71.8,70.6,29.84,SSE,153,5.0,14.0,96,0.00,,,0.00,VWS V14.01,2013-12-29 10:16:00,
2013-12-29 05:21:00,72.0,70.8,29.84,SE,140,4.0,14.0,96,0.00,,,0.00,VWS V14.01,2013-12-29 10:21:00,
2013-12-29 05:26:00,72.1,70.9,29.84,WSW,237,8.0,14.0,96,0.00,,,0.00,VWS V14.01,2013-12-29 10:26:00,
2013-12-29 05:30:00,72.1,70.6,29.86,SW,224,2.0,9.0,95,0.00,,,0.00,VWS V14.01,2013-12-29 10:30:00,
2013-12-29 05:31:00,72.1,70.6,29.85,South,180,0.0,5.0,95,0.00,,,0.00,VWS V14.01,2013-12-29 10:31:00,
2013-12-29 05:36:00,72.1,70.6,29.85,SE,126,0.0,11.0,95,0.00,,,0.00,VWS V14.01,2013-12-29 10:36:00,
2013-12-29 05:41:00,72.1,70.6,29.85,ESE,123,2.0,11.0,95,0.00,,,0.00,VWS V14.01,2013-12-29 10:41:00,
2013-12-29 05:46:00,72.1,70.6,29.86,SE,134,0.0,12.0,95,0.00,,,0.00,VWS V14.01,2013-12-29 10:46:00,
2013-12-29 05:51:00,72.1,70.6,29.86,ESE,113,1.0,12.0,95,0.00,,,0.00,VWS V14.01,2013-12-29 10:51:00,
2013-12-29 05:56:00,72.1,70.6,29.86,SSW,195,7.0,12.0,95,0.00,,,0.00,VWS V14.01,2013-12-29 10:56:00,
2013-12-29 06:00:00,72.1,70.6,29.87,SSW,193,2.0,12.0,95,0.00,,,0.00,VWS V14.01,2013-12-29 11:00:00,
2013-12-29 06:01:00,72.1,70.6,29.87,SSW,213,1.0,9.0,95,0.00,,,0.00,VWS V14.01,2013-12-29 11:01:00,
2013-12-29 06:06:00,72.1,70.6,29.87,South,188,4.0,9.0,95,0.00,,,0.00,VWS V14.01,2013-12-29 11:06:00,
2013-12-29 06:11:00,72.1,70.6,29.87,SSE,155,0.0,9.0,95,0.00,,,0.00,VWS V14.01,2013-12-29 11:11:00,
2013-12-29 06:16:00,72.1,70.6,29.87,SE,132,0.0,9.0,95,0.00,,,0.00,VWS V14.01,2013-12-29 11:16:00,
2013-12-29 06:21:00,72.0,70.5,29.87,South,170,0.0,9.0,95,0.00,,,0.00,VWS V14.01,2013-12-29 11:21:00,
2013-12-29 06:26:00,72.0,70.5,29.87,SSW,192,2.0,9.0,95,0.00,,,0.00,VWS V14.01,2013-12-29 11:26:00,
2013-12-29 06:30:00,72.3,70.8,29.86,SSW,202,6.0,12.0,95,0.00,,,0.00,VWS V14.01,2013-12-29 11:30:00,
2013-12-29 06:31:00,72.1,70.6,29.86,South,189,3.0,4.0,95,0.00,,,0.00,VWS V14.01,2013-12-29 11:31:00,
2013-12-29 06:36:00,72.1,70.6,29.86,SE,143,2.0,9.0,95,0.00,,,0.00,VWS V14.01,2013-12-29 11:36:00,
2013-12-29 06:41:00,72.1,70.6,29.86,WSW,237,2.0,9.0,95,0.00,,,0.00,VWS V14.01,2013-12-29 11:41:00,
2013-12-29 06:46:00,72.1,70.6,29.87,SSE,148,2.0,9.0,95,0.00,,,0.00,VWS V14.01,2013-12-29 11:46:00,
2013-12-29 06:51:00,72.1,70.6,29.87,SW,226,7.0,12.0,95,0.00,,,0.00,VWS V14.01,2013-12-29 11:51:00,
2013-12-29 06:56:00,72.1,70.6,29.87,SE,133,2.0,12.0,95,0.00,,,0.00,VWS V14.01,2013-12-29 11:56:00,
2013-12-29 07:00:00,72.5,71.0,29.87,SE,125,5.0,13.0,95,0.00,,,0.00,VWS V14.01,2013-12-29 12:00:00,
2013-12-29 07:01:00,72.3,70.8,29.87,SSW,207,5.0,6.0,95,0.00,,,0.00,VWS V14.01,2013-12-29 12:01:00,
2013-12-29 07:06:00,72.3,70.8,29.87,SSW,196,3.0,12.0,95,0.00,,,0.00,VWS V14.01,2013-12-29 12:06:00,
2013-12-29 07:11:00,72.3,70.8,29.87,SE,140,3.0,12.0,95,0.00,,,0.00,VWS V14.01,2013-12-29 12:11:00,
2013-12-29 07:16:00,72.1,70.6,29.87,SE,144,9.0,12.0,95,0.00,,,0.00,VWS V14.01,2013-12-29 12:16:00,
2013-12-29 07:21:00,72.1,70.6,29.87,SE,138,6.0,12.0,95,0.00,,,0.00,VWS V14.01,2013-12-29 12:21:00,
2013-12-29 07:26:00,72.3,70.8,29.87,South,170,1.0,12.0,95,0.00,,,0.00,VWS V14.01,2013-12-29 12:26:00,
2013-12-29 07:30:00,72.5,71.3,29.88,SSE,162,1.0,16.0,96,0.01,,,0.01,VWS V14.01,2013-12-29 12:30:00,
2013-12-29 07:31:00,72.3,70.8,29.86,SSW,213,5.0,6.0,95,0.00,,,0.00,VWS V14.01,2013-12-29 12:31:00,
2013-12-29 07:36:00,72.3,70.8,29.86,South,169,0.0,6.0,95,0.00,,,0.00,VWS V14.01,2013-12-29 12:36:00,
2013-12-29 07:41:00,72.3,70.8,29.86,South,169,0.0,10.0,95,0.00,,,0.00,VWS V14.01,2013-12-29 12:41:00,
2013-12-29 07:46:00,72.3,70.8,29.86,SSE,150,5.0,10.0,95,0.00,,,0.00,VWS V14.01,2013-12-29 12:46:00,
2013-12-29 07:51:00,72.3,70.8,29.86,SE,138,1.0,13.0,95,0.00,,,0.00,VWS V14.01,2013-12-29 12:51:00,
2013-12-29 07:56:00,72.3,70.8,29.86,SW,217,5.0,13.0,95,0.00,,,0.00,VWS V14.01,2013-12-29 12:56:00,
2013-12-29 08:00:00,72.0,70.8,29.88,WSW,250,4.0,19.0,96,0.05,,,0.05,VWS V14.01,2013-12-29 13:00:00,
2013-12-29 08:01:00,72.5,71.0,29.87,SE,125,2.0,4.0,95,0.00,,,0.00,VWS V14.01,2013-12-29 13:01:00,
2013-12-29 08:06:00,72.5,71.0,29.87,SE,144,2.0,11.0,95,0.00,,,0.00,VWS V14.01,2013-12-29 13:06:00,
2013-12-29 08:11:00,72.5,71.0,29.87,SW,219,4.0,11.0,95,0.00,,,0.00,VWS V14.01,2013-12-29 13:11:00,
2013-12-29 08:16:00,72.5,71.0,29.88,SSE,160,4.0,13.0,95,0.00,,,0.00,VWS V14.01,2013-12-29 13:16:00,
2013-12-29 08:21:00,72.5,71.0,29.88,SE,139,5.0,13.0,95,0.01,,,0.01,VWS V14.01,2013-12-29 13:21:00,
2013-12-29 08:26:00,72.5,71.3,29.88,SW,218,3.0,13.0,96,0.01,,,0.01,VWS V14.01,2013-12-29 13:26:00,
2013-12-29 08:30:00,71.5,70.3,29.87,ESE,123,0.0,7.0,96,0.05,,,0.05,VWS V14.01,2013-12-29 13:30:00,
2013-12-29 08:31:00,72.5,71.3,29.88,WSW,247,2.0,4.0,96,0.01,,,0.01,VWS V14.01,2013-12-29 13:31:00,
2013-12-29 08:36:00,72.5,71.3,29.88,North,360,3.0,7.0,96,0.01,,,0.01,VWS V14.01,2013-12-29 13:36:00,
2013-12-29 08:41:00,72.5,71.3,29.88,SSW,200,4.0,9.0,96,0.02,,,0.02,VWS V14.01,2013-12-29 13:41:00,
2013-12-29 08:46:00,72.5,71.3,29.89,WSW,256,6.0,11.0,96,0.03,,,0.03,VWS V14.01,2013-12-29 13:46:00,
2013-12-29 08:51:00,72.5,71.3,29.89,WSW,257,3.0,19.0,96,0.03,,,0.03,VWS V14.01,2013-12-29 13:51:00,
2013-12-29 08:56:00,72.3,71.1,29.89,SW,231,5.0,19.0,96,0.04,,,0.04,VWS V14.01,2013-12-29 13:56:00,
2013-12-29 09:00:00,72.3,71.1,29.88,South,175,0.0,3.0,96,0.04,,,0.05,VWS V14.01,2013-12-29 14:00:00,
2013-12-29 09:01:00,72.0,70.8,29.88,SSW,213,4.0,5.0,96,0.05,,,0.05,VWS V14.01,2013-12-29 14:01:00,
2013-12-29 09:06:00,71.6,70.1,29.88,WSW,252,2.0,5.0,95,0.05,,,0.05,VWS V14.01,2013-12-29 14:06:00,
2013-12-29 09:11:00,71.5,70.0,29.88,ESE,110,2.0,7.0,95,0.05,,,0.05,VWS V14.01,2013-12-29 14:11:00,
2013-12-29 09:16:00,71.3,69.8,29.87,SSW,200,0.0,7.0,95,0.05,,,0.05,VWS V14.01,2013-12-29 14:16:00,
2013-12-29 09:21:00,71.3,70.1,29.87,SE,146,4.0,7.0,96,0.05,,,0.05,VWS V14.01,2013-12-29 14:21:00,
2013-12-29 09:26:00,71.3,70.1,29.87,SE,125,0.0,7.0,96,0.05,,,0.05,VWS V14.01,2013-12-29 14:26:00,
2013-12-29 09:30:00,72.8,71.6,29.90,WSW,254,4.0,7.0,96,0.00,,,0.05,VWS V14.01,2013-12-29 14:30:00,
2013-12-29 09:31:00,71.5,70.3,29.87,ESE,121,0.0,1.0,96,0.04,,,0.05,VWS V14.01,2013-12-29 14:31:00,
2013-12-29 09:36:00,71.6,70.4,29.87,ESE,121,0.0,1.0,96,0.04,,,0.05,VWS V14.01,2013-12-29 14:36:00,
2013-12-29 09:41:00,71.6,70.4,29.87,ESE,122,0.0,2.0,96,0.04,,,0.05,VWS V14.01,2013-12-29 14:41:00,
2013-12-29 09:46:00,71.8,70.6,29.87,ESE,123,0.0,3.0,96,0.04,,,0.05,VWS V14.01,2013-12-29 14:46:00,
2013-12-29 09:51:00,71.8,70.6,29.87,ESE,122,0.0,3.0,96,0.04,,,0.05,VWS V14.01,2013-12-29 14:51:00,
2013-12-29 09:56:00,72.1,70.9,29.87,ESE,123,0.0,3.0,96,0.04,,,0.05,VWS V14.01,2013-12-29 14:56:00,
2013-12-29 10:00:00,73.0,71.8,29.89,WSW,250,0.0,6.0,96,0.00,,,0.05,VWS V14.01,2013-12-29 15:00:00,
2013-12-29 10:01:00,72.3,71.1,29.88,South,173,0.0,1.0,96,0.00,,,0.05,VWS V14.01,2013-12-29 15:01:00,
2013-12-29 10:06:00,72.5,71.3,29.88,SW,229,0.0,5.0,96,0.00,,,0.05,VWS V14.01,2013-12-29 15:06:00,
2013-12-29 10:11:00,72.7,71.5,29.88,SW,218,2.0,5.0,96,0.00,,,0.05,VWS V14.01,2013-12-29 15:11:00,
2013-12-29 10:16:00,72.7,71.5,29.89,West,273,4.0,5.0,96,0.00,,,0.05,VWS V14.01,2013-12-29 15:16:00,
2013-12-29 10:21:00,72.7,71.5,29.89,WSW,242,6.0,7.0,96,0.00,,,0.05,VWS V14.01,2013-12-29 15:21:00,
2013-12-29 10:26:00,72.8,71.6,29.89,SW,235,4.0,7.0,96,0.00,,,0.05,VWS V14.01,2013-12-29 15:26:00,
2013-12-29 10:30:00,73.3,72.4,29.88,WSW,240,1.0,6.0,97,0.09,,,0.14,VWS V14.01,2013-12-29 15:30:00,
2013-12-29 10:31:00,72.8,71.6,29.90,West,263,5.0,6.0,96,0.00,,,0.05,VWS V14.01,2013-12-29 15:31:00,
2013-12-29 10:47:00,72.8,71.6,29.90,SW,218,4.0,6.0,96,0.00,,,0.05,VWS V14.01,2013-12-29 15:47:00,
2013-12-29 10:52:00,73.0,71.8,29.90,WSW,251,1.0,6.0,96,0.00,,,0.05,VWS V14.01,2013-12-29 15:52:00,
2013-12-29 10:57:00,73.0,71.8,29.90,WSW,250,3.0,6.0,96,0.00,,,0.05,VWS V14.01,2013-12-29 15:57:00,
2013-12-29 11:00:00,74.6,73.7,29.85,SW,232,0.0,11.0,97,0.09,,,0.14,VWS V14.01,2013-12-29 16:00:00,
2013-12-29 11:02:00,73.0,71.8,29.89,WSW,250,0.0,1.0,96,0.00,,,0.05,VWS V14.01,2013-12-29 16:02:00,
2013-12-29 11:07:00,73.2,72.0,29.89,WSW,250,0.0,2.0,96,0.00,,,0.05,VWS V14.01,2013-12-29 16:07:00,
2013-12-29 11:12:00,73.2,72.0,29.89,WSW,252,0.0,5.0,96,0.00,,,0.05,VWS V14.01,2013-12-29 16:12:00,
2013-12-29 11:17:00,73.2,72.0,29.89,WSW,250,0.0,5.0,96,0.00,,,0.05,VWS V14.01,2013-12-29 16:17:00,
2013-12-29 11:22:00,73.2,72.0,29.89,West,261,2.0,5.0,96,0.07,,,0.12,VWS V14.01,2013-12-29 16:22:00,
2013-12-29 11:27:00,73.2,72.3,29.89,SW,227,3.0,6.0,97,0.09,,,0.14,VWS V14.01,2013-12-29 16:27:00,
2013-12-29 11:30:00,75.3,73.5,29.84,SW,225,3.0,10.0,94,0.09,,,0.14,VWS V14.01,2013-12-29 16:30:00,
2013-12-29 11:32:00,73.5,72.6,29.88,WSW,240,0.0,2.0,97,0.09,,,0.14,VWS V14.01,2013-12-29 16:32:00,
2013-12-29 11:37:00,73.7,72.8,29.88,WSW,255,1.0,6.0,97,0.09,,,0.14,VWS V14.01,2013-12-29 16:37:00,
2013-12-29 11:42:00,73.9,73.0,29.88,West,265,4.0,11.0,97,0.09,,,0.14,VWS V14.01,2013-12-29 16:42:00,
2013-12-29 11:47:00,74.2,73.3,29.86,WSW,244,0.0,11.0,97,0.09,,,0.14,VWS V14.01,2013-12-29 16:47:00,
2013-12-29 11:52:00,74.4,73.5,29.86,West,259,3.0,11.0,97,0.09,,,0.14,VWS V14.01,2013-12-29 16:52:00,
2013-12-29 11:57:00,74.6,73.7,29.86,SW,235,0.0,11.0,97,0.09,,,0.14,VWS V14.01,2013-12-29 16:57:00,
2013-12-29 12:00:00,76.1,73.0,29.82,South,173,8.0,17.0,90,0.00,,,0.14,VWS V14.01,2013-12-29 17:00:00,
2013-12-29 12:02:00,74.7,73.8,29.85,South,178,5.0,5.0,97,0.09,,,0.14,VWS V14.01,2013-12-29 17:02:00,
2013-12-29 12:07:00,74.9,74.0,29.85,WSW,237,5.0,9.0,97,0.09,,,0.14,VWS V14.01,2013-12-29 17:07:00,
2013-12-29 12:12:00,75.3,74.4,29.85,SW,215,10.0,10.0,97,0.09,,,0.14,VWS V14.01,2013-12-29 17:12:00,
2013-12-29 12:17:00,75.4,74.5,29.85,SSW,209,1.0,10.0,97,0.09,,,0.14,VWS V14.01,2013-12-29 17:17:00,
2013-12-29 12:22:00,75.4,74.2,29.85,WSW,246,3.0,10.0,96,0.09,,,0.14,VWS V14.01,2013-12-29 17:22:00,
2013-12-29 12:27:00,75.4,73.9,29.85,SSW,194,7.0,10.0,95,0.09,,,0.14,VWS V14.01,2013-12-29 17:27:00,
2013-12-29 12:30:00,77.4,73.6,29.80,SSE,147,2.0,12.0,88,0.00,,,0.14,VWS V14.01,2013-12-29 17:30:00,
2013-12-29 12:32:00,75.3,73.5,29.84,SW,219,5.0,7.0,94,0.00,,,0.14,VWS V14.01,2013-12-29 17:32:00,
2013-12-29 12:37:00,75.4,73.6,29.84,SSE,148,1.0,7.0,94,0.00,,,0.14,VWS V14.01,2013-12-29 17:37:00,
2013-12-29 12:42:00,75.8,73.9,29.84,West,266,5.0,13.0,94,0.00,,,0.14,VWS V14.01,2013-12-29 17:42:00,
2013-12-29 12:47:00,76.3,73.8,29.83,West,272,12.0,13.0,92,0.00,,,0.14,VWS V14.01,2013-12-29 17:47:00,
2013-12-29 12:52:00,76.3,73.2,29.83,West,268,8.0,13.0,90,0.00,,,0.14,VWS V14.01,2013-12-29 17:52:00,
2013-12-29 12:57:00,76.1,73.0,29.83,SW,234,9.0,17.0,90,0.00,,,0.14,VWS V14.01,2013-12-29 17:57:00,
2013-12-29 13:00:00,76.8,73.7,29.79,SW,234,4.0,13.0,90,0.01,,,0.15,VWS V14.01,2013-12-29 18:00:00,
2013-12-29 13:02:00,76.1,73.0,29.82,WSW,255,8.0,9.0,90,0.00,,,0.14,VWS V14.01,2013-12-29 18:02:00,
2013-12-29 13:07:00,76.1,73.3,29.82,West,264,8.0,9.0,91,0.00,,,0.14,VWS V14.01,2013-12-29 18:07:00,
2013-12-29 13:12:00,76.3,73.5,29.82,South,169,3.0,9.0,91,0.00,,,0.14,VWS V14.01,2013-12-29 18:12:00,
2013-12-29 13:17:00,76.5,73.7,29.82,SW,221,3.0,12.0,91,0.00,,,0.14,VWS V14.01,2013-12-29 18:17:00,
2013-12-29 13:22:00,77.4,74.2,29.82,WSW,245,8.0,12.0,90,0.00,,,0.14,VWS V14.01,2013-12-29 18:22:00,
2013-12-29 13:27:00,77.6,73.8,29.82,WSW,255,4.0,12.0,88,0.00,,,0.14,VWS V14.01,2013-12-29 18:27:00,
2013-12-29 13:30:00,77.7,73.2,29.78,South,173,3.0,14.0,86,0.01,,,0.15,VWS V14.01,2013-12-29 18:30:00,
2013-12-29 13:32:00,77.4,73.9,29.80,WSW,240,3.0,9.0,89,0.01,,,0.15,VWS V14.01,2013-12-29 18:32:00,
2013-12-29 13:37:00,77.2,74.0,29.80,SW,216,2.0,11.0,90,0.01,,,0.15,VWS V14.01,2013-12-29 18:37:00,
2013-12-29 13:42:00,76.8,74.0,29.80,WSW,246,4.0,11.0,91,0.01,,,0.15,VWS V14.01,2013-12-29 18:42:00,
2013-12-29 13:47:00,76.7,74.2,29.80,WSW,240,5.0,11.0,92,0.01,,,0.15,VWS V14.01,2013-12-29 18:47:00,
2013-12-29 13:52:00,76.5,73.7,29.80,SW,216,2.0,12.0,91,0.01,,,0.15,VWS V14.01,2013-12-29 18:52:00,
2013-12-29 13:57:00,76.7,74.2,29.80,WSW,246,4.0,12.0,92,0.01,,,0.15,VWS V14.01,2013-12-29 18:57:00,
2013-12-29 14:00:00,77.9,71.2,29.79,WNW,286,7.0,17.0,80,0.01,,,0.15,VWS V14.01,2013-12-29 19:00:00,
2013-12-29 14:02:00,77.0,73.8,29.79,West,281,4.0,6.0,90,0.01,,,0.15,VWS V14.01,2013-12-29 19:02:00,
2013-12-29 14:07:00,77.4,73.9,29.79,WSW,256,2.0,12.0,89,0.01,,,0.15,VWS V14.01,2013-12-29 19:07:00,
2013-12-29 14:12:00,77.4,73.9,29.79,West,266,4.0,12.0,89,0.01,,,0.15,VWS V14.01,2013-12-29 19:12:00,
2013-12-29 14:22:00,77.7,73.5,29.79,WSW,244,4.0,12.0,87,0.01,,,0.15,VWS V14.01,2013-12-29 19:22:00,
2013-12-29 14:27:00,77.7,73.5,29.79,WSW,256,5.0,14.0,87,0.01,,,0.15,VWS V14.01,2013-12-29 19:27:00,
2013-12-29 14:30:00,78.1,70.7,29.78,West,267,6.0,16.0,78,0.00,,,0.15,VWS V14.01,2013-12-29 19:30:00,
2013-12-29 14:32:00,77.7,72.8,29.78,West,261,2.0,10.0,85,0.01,,,0.15,VWS V14.01,2013-12-29 19:32:00,
2013-12-29 14:37:00,77.7,71.4,29.78,SW,222,11.0,17.0,81,0.01,,,0.15,VWS V14.01,2013-12-29 19:37:00,
2013-12-29 14:42:00,77.9,70.9,29.78,WSW,249,2.0,17.0,79,0.01,,,0.15,VWS V14.01,2013-12-29 19:42:00,
2013-12-29 14:47:00,77.7,70.7,29.78,WSW,257,5.0,17.0,79,0.01,,,0.15,VWS V14.01,2013-12-29 19:47:00,
2013-12-29 14:52:00,77.7,71.0,29.78,WSW,240,5.0,17.0,80,0.01,,,0.15,VWS V14.01,2013-12-29 19:52:00,
2013-12-29 14:57:00,77.7,71.0,29.78,SW,232,4.0,17.0,80,0.01,,,0.15,VWS V14.01,2013-12-29 19:57:00,
2013-12-29 15:00:00,77.6,69.8,29.79,WSW,250,7.0,18.0,77,0.00,,,0.15,VWS V14.01,2013-12-29 20:00:00,
2013-12-29 15:02:00,77.9,71.6,29.79,SW,216,5.0,11.0,81,0.00,,,0.15,VWS V14.01,2013-12-29 20:02:00,
2013-12-29 15:07:00,78.1,71.8,29.79,West,268,9.0,15.0,81,0.00,,,0.15,VWS V14.01,2013-12-29 20:07:00,
2013-12-29 15:12:00,78.1,71.4,29.79,SW,214,3.0,15.0,80,0.00,,,0.15,VWS V14.01,2013-12-29 20:12:00,
2013-12-29 15:17:00,78.3,71.6,29.78,SW,236,9.0,15.0,80,0.00,,,0.15,VWS V14.01,2013-12-29 20:17:00,
2013-12-29 15:22:00,78.3,71.3,29.78,West,263,8.0,16.0,79,0.00,,,0.15,VWS V14.01,2013-12-29 20:22:00,
2013-12-29 15:27:00,78.1,70.7,29.78,WSW,255,9.0,16.0,78,0.00,,,0.15,VWS V14.01,2013-12-29 20:27:00,
2013-12-29 15:30:00,76.8,69.4,29.80,West,263,5.0,17.0,78,0.00,,,0.15,VWS V14.01,2013-12-29 20:30:00,
2013-12-29 15:32:00,78.1,70.7,29.78,WSW,237,10.0,17.0,78,0.00,,,0.15,VWS V14.01,2013-12-29 20:32:00,
2013-12-29 15:37:00,78.1,70.3,29.78,SSW,205,4.0,18.0,77,0.00,,,0.15,VWS V14.01,2013-12-29 20:37:00,
2013-12-29 15:42:00,78.1,70.7,29.78,WSW,248,6.0,18.0,78,0.00,,,0.15,VWS V14.01,2013-12-29 20:42:00,
2013-12-29 15:47:00,77.9,70.5,29.79,SSW,213,9.0,18.0,78,0.00,,,0.15,VWS V14.01,2013-12-29 20:47:00,
2013-12-29 15:52:00,77.7,70.3,29.79,SSW,208,6.0,18.0,78,0.00,,,0.15,VWS V14.01,2013-12-29 20:52:00,
2013-12-29 15:57:00,77.6,70.2,29.79,WSW,255,9.0,18.0,78,0.00,,,0.15,VWS V14.01,2013-12-29 20:57:00,
2013-12-29 16:00:00,76.0,69.0,29.81,SW,236,12.0,23.0,79,0.00,,,0.15,VWS V14.01,2013-12-29 21:00:00,
2013-12-29 16:02:00,77.6,69.8,29.79,West,268,8.0,13.0,77,0.00,,,0.15,VWS V14.01,2013-12-29 21:02:00,
2013-12-29 16:07:00,77.4,69.6,29.79,WSW,248,5.0,17.0,77,0.00,,,0.15,VWS V14.01,2013-12-29 21:07:00,
2013-12-29 16:12:00,77.4,70.0,29.79,WSW,244,7.0,17.0,78,0.00,,,0.15,VWS V14.01,2013-12-29 21:12:00,
2013-12-29 16:17:00,77.2,69.8,29.80,WSW,248,10.0,17.0,78,0.00,,,0.15,VWS V14.01,2013-12-29 21:17:00,
2013-12-29 16:22:00,77.0,69.6,29.80,West,263,11.0,17.0,78,0.00,,,0.15,VWS V14.01,2013-12-29 21:22:00,
2013-12-29 16:27:00,77.0,69.6,29.80,WSW,248,5.0,17.0,78,0.00,,,0.15,VWS V14.01,2013-12-29 21:27:00,
2013-12-29 16:30:00,75.3,69.4,29.82,SW,232,3.0,23.0,82,0.00,,,0.15,VWS V14.01,2013-12-29 21:30:00,
2013-12-29 16:32:00,76.8,69.4,29.80,WSW,240,5.0,13.0,78,0.00,,,0.15,VWS V14.01,2013-12-29 21:32:00,
2013-12-29 16:37:00,76.8,69.4,29.80,WSW,257,6.0,13.0,78,0.00,,,0.15,VWS V14.01,2013-12-29 21:37:00,
2013-12-29 16:42:00,76.7,69.3,29.80,WSW,255,3.0,16.0,78,0.00,,,0.15,VWS V14.01,2013-12-29 21:42:00,
2013-12-29 16:47:00,76.5,69.1,29.81,WSW,245,6.0,16.0,78,0.00,,,0.15,VWS V14.01,2013-12-29 21:47:00,
2013-12-29 16:52:00,76.5,69.5,29.81,SW,236,7.0,16.0,79,0.00,,,0.15,VWS V14.01,2013-12-29 21:52:00,
2013-12-29 16:57:00,76.1,69.1,29.81,WSW,253,12.0,18.0,79,0.00,,,0.15,VWS V14.01,2013-12-29 21:57:00,
2013-12-29 17:00:00,74.4,68.9,29.82,WSW,257,5.0,20.0,83,0.00,,,0.15,VWS V14.01,2013-12-29 22:00:00,
2013-12-29 17:02:00,76.0,69.0,29.81,WSW,250,7.0,17.0,79,0.00,,,0.15,VWS V14.01,2013-12-29 22:02:00,
2013-12-29 17:07:00,75.8,68.8,29.81,West,266,14.0,23.0,79,0.00,,,0.15,VWS V14.01,2013-12-29 22:07:00,
2013-12-29 17:12:00,75.6,69.0,29.81,SW,219,15.0,23.0,80,0.00,,,0.15,VWS V14.01,2013-12-29 22:12:00,
2013-12-29 17:17:00,75.6,69.0,29.81,SW,236,11.0,23.0,80,0.00,,,0.15,VWS V14.01,2013-12-29 22:17:00,
2013-12-29 17:22:00,75.4,69.2,29.81,WSW,238,9.0,23.0,81,0.00,,,0.15,VWS V14.01,2013-12-29 22:22:00,
2013-12-29 17:27:00,75.3,69.1,29.81,WSW,241,9.0,23.0,81,0.00,,,0.15,VWS V14.01,2013-12-29 22:27:00,
2013-12-29 17:30:00,74.0,69.2,29.83,West,259,4.0,16.0,85,0.00,,,0.15,VWS V14.01,2013-12-29 22:30:00,
2013-12-29 17:32:00,75.3,69.4,29.82,WSW,255,6.0,18.0,82,0.00,,,0.15,VWS V14.01,2013-12-29 22:32:00,
2013-12-29 17:37:00,75.1,69.2,29.82,WSW,245,7.0,18.0,82,0.00,,,0.15,VWS V14.01,2013-12-29 22:37:00,
2013-12-29 17:42:00,74.9,69.0,29.82,West,266,14.0,18.0,82,0.00,,,0.15,VWS V14.01,2013-12-29 22:42:00,
2013-12-29 17:47:00,74.7,68.8,29.82,SSW,211,7.0,20.0,82,0.00,,,0.15,VWS V14.01,2013-12-29 22:47:00,
2013-12-29 17:52:00,74.7,68.8,29.82,North,360,7.0,20.0,82,0.00,,,0.15,VWS V14.01,2013-12-29 22:52:00,
2013-12-29 17:57:00,74.6,69.1,29.82,WSW,253,5.0,20.0,83,0.00,,,0.15,VWS V14.01,2013-12-29 22:57:00,
2013-12-29 18:00:00,73.5,69.4,29.83,West,264,5.0,14.0,87,0.00,,,0.15,VWS V14.01,2013-12-29 23:00:00,
2013-12-29 18:02:00,74.4,69.3,29.82,WSW,250,5.0,13.0,84,0.00,,,0.15,VWS V14.01,2013-12-29 23:02:00,
2013-12-29 18:07:00,74.2,68.0,29.82,West,261,7.0,13.0,81,0.00,,,0.15,VWS V14.01,2013-12-29 23:07:00,
2013-12-29 18:12:00,74.0,68.9,29.82,SW,235,5.0,16.0,84,0.00,,,0.15,VWS V14.01,2013-12-29 23:12:00,
2013-12-29 18:17:00,74.0,68.9,29.83,West,273,11.0,16.0,84,0.00,,,0.15,VWS V14.01,2013-12-29 23:17:00,
2013-12-29 18:22:00,74.0,69.2,29.83,WSW,244,9.0,16.0,85,0.00,,,0.15,VWS V14.01,2013-12-29 23:22:00,
2013-12-29 18:27:00,74.0,69.2,29.83,WSW,248,5.0,16.0,85,0.00,,,0.15,VWS V14.01,2013-12-29 23:27:00,
2013-12-29 18:30:00,73.2,69.8,29.85,WSW,246,4.0,14.0,89,0.00,,,0.15,VWS V14.01,2013-12-29 23:30:00,
2013-12-29 18:32:00,74.0,69.2,29.83,SSW,204,3.0,8.0,85,0.00,,,0.15,VWS V14.01,2013-12-29 23:32:00,
2013-12-29 18:37:00,73.9,69.1,29.83,West,269,8.0,14.0,85,0.00,,,0.15,VWS V14.01,2013-12-29 23:37:00,
2013-12-29 18:42:00,73.7,69.3,29.83,West,263,5.0,14.0,86,0.00,,,0.15,VWS V14.01,2013-12-29 23:42:00,
2013-12-29 18:47:00,73.7,69.3,29.83,West,270,6.0,14.0,86,0.00,,,0.15,VWS V14.01,2013-12-29 23:47:00,
2013-12-29 18:52:00,73.5,69.4,29.83,WSW,251,4.0,14.0,87,0.00,,,0.15,VWS V14.01,2013-12-29 23:52:00,
2013-12-29 18:57:00,73.5,69.1,29.83,WSW,254,6.0,14.0,86,0.00,,,0.15,VWS V14.01,2013-12-29 23:57:00,
2013-12-29 19:00:00,71.8,69.7,29.85,North,360,6.0,14.0,93,0.00,,,0.15,VWS V14.01,2013-12-30 00:00:00,
2013-12-29 19:02:00,73.5,69.4,29.83,WSW,238,4.0,12.0,87,0.00,,,0.15,VWS V14.01,2013-12-30 00:02:00,
2013-12-29 19:07:00,73.5,69.4,29.83,WSW,257,7.0,12.0,87,0.00,,,0.15,VWS V14.01,2013-12-30 00:07:00,
2013-12-29 19:12:00,73.5,69.4,29.83,West,267,6.0,12.0,87,0.00,,,0.15,VWS V14.01,2013-12-30 00:12:00,
2013-12-29 19:17:00,73.5,69.4,29.84,West,261,12.0,12.0,87,0.00,,,0.15,VWS V14.01,2013-12-30 00:17:00,
2013-12-29 19:22:00,73.5,69.4,29.84,West,278,5.0,12.0,87,0.00,,,0.15,VWS V14.01,2013-12-30 00:22:00,
2013-12-29 19:27:00,73.3,69.5,29.84,WSW,248,6.0,12.0,88,0.00,,,0.15,VWS V14.01,2013-12-30 00:27:00,
2013-12-29 19:30:00,68.9,66.5,29.86,WNW,289,4.0,14.0,92,0.00,,,0.15,VWS V14.01,2013-12-30 00:30:00,
2013-12-29 19:32:00,73.2,70.1,29.85,West,264,3.0,12.0,90,0.00,,,0.15,VWS V14.01,2013-12-30 00:32:00,
2013-12-29 19:37:00,72.8,70.0,29.85,West,269,5.0,12.0,91,0.00,,,0.15,VWS V14.01,2013-12-30 00:37:00,
2013-12-29 19:42:00,72.7,70.2,29.85,West,273,2.0,12.0,92,0.00,,,0.15,VWS V14.01,2013-12-30 00:42:00,
2013-12-29 19:47:00,72.3,69.8,29.85,West,276,6.0,13.0,92,0.00,,,0.15,VWS V14.01,2013-12-30 00:47:00,
2013-12-29 19:52:00,72.1,69.7,29.85,West,275,4.0,14.0,92,0.00,,,0.15,VWS V14.01,2013-12-30 00:52:00,
2013-12-29 19:57:00,71.8,69.7,29.85,WNW,292,5.0,14.0,93,0.00,,,0.15,VWS V14.01,2013-12-30 00:57:00,
2013-12-29 20:00:00,67.6,65.5,29.87,NNW,346,3.0,6.0,93,0.00,,,0.15,VWS V14.01,2013-12-30 01:00:00,
2013-12-29 20:02:00,71.6,69.5,29.85,West,281,4.0,7.0,93,0.00,,,0.15,VWS V14.01,2013-12-30 01:02:00,
2013-12-29 20:07:00,71.3,68.9,29.85,WNW,295,9.0,10.0,92,0.00,,,0.15,VWS V14.01,2013-12-30 01:07:00,
2013-12-29 20:12:00,71.1,68.7,29.85,West,272,6.0,11.0,92,0.00,,,0.15,VWS V14.01,2013-12-30 01:12:00,
2013-12-29 20:17:00,70.4,68.0,29.86,NW,323,11.0,14.0,92,0.00,,,0.15,VWS V14.01,2013-12-30 01:17:00,
2013-12-29 20:22:00,69.6,66.9,29.86,North,355,2.0,14.0,91,0.00,,,0.15,VWS V14.01,2013-12-30 01:22:00,
2013-12-29 20:27:00,69.3,66.9,29.86,WNW,295,6.0,14.0,92,0.00,,,0.15,VWS V14.01,2013-12-30 01:27:00,
2013-12-29 20:30:00,66.9,65.1,29.88,WNW,291,5.0,5.0,94,0.00,,,0.15,VWS V14.01,2013-12-30 01:30:00,
2013-12-29 20:32:00,68.9,66.5,29.86,NNW,333,4.0,6.0,92,0.00,,,0.15,VWS V14.01,2013-12-30 01:32:00,
2013-12-29 20:39:00,68.4,66.0,29.86,NW,306,3.0,6.0,92,0.00,,,0.15,VWS V14.01,2013-12-30 01:39:00,
2013-12-29 20:44:00,68.3,66.2,29.86,NNW,335,3.0,6.0,93,0.00,,,0.15,VWS V14.01,2013-12-30 01:44:00,
2013-12-29 20:49:00,68.1,66.0,29.86,NNW,330,0.0,6.0,93,0.00,,,0.15,VWS V14.01,2013-12-30 01:49:00,
2013-12-29 20:54:00,67.8,66.0,29.86,North,360,0.0,6.0,94,0.00,,,0.15,VWS V14.01,2013-12-30 01:54:00,
2013-12-29 20:59:00,67.6,65.8,29.87,NNW,345,0.0,6.0,94,0.00,,,0.15,VWS V14.01,2013-12-30 01:59:00,
2013-12-29 21:00:00,66.4,64.6,29.89,WNW,299,0.0,5.0,94,0.00,,,0.15,VWS V14.01,2013-12-30 02:00:00,
2013-12-29 21:04:00,67.4,65.3,29.87,NNW,346,0.0,3.0,93,0.00,,,0.15,VWS V14.01,2013-12-30 02:04:00,
2013-12-29 21:09:00,67.3,65.2,29.87,NNW,346,0.0,3.0,93,0.00,,,0.15,VWS V14.01,2013-12-30 02:09:00,
2013-12-29 21:14:00,67.1,65.0,29.87,NNW,345,3.0,3.0,93,0.00,,,0.15,VWS V14.01,2013-12-30 02:14:00,
2013-12-29 21:19:00,67.1,65.3,29.87,NNW,342,1.0,3.0,94,0.00,,,0.15,VWS V14.01,2013-12-30 02:19:00,
2013-12-29 21:24:00,66.9,65.1,29.87,NNW,341,0.0,3.0,94,0.00,,,0.15,VWS V14.01,2013-12-30 02:24:00,
2013-12-29 21:29:00,66.9,65.1,29.87,NW,312,4.0,4.0,94,0.00,,,0.15,VWS V14.01,2013-12-30 02:29:00,
2013-12-29 21:30:00,65.6,63.5,29.89,North,360,3.0,7.0,93,0.00,,,0.15,VWS V14.01,2013-12-30 02:30:00,
2013-12-29 21:34:00,66.8,65.0,29.88,WNW,298,4.0,5.0,94,0.00,,,0.15,VWS V14.01,2013-12-30 02:34:00,
2013-12-29 21:39:00,66.8,65.0,29.88,WNW,294,0.0,5.0,94,0.00,,,0.15,VWS V14.01,2013-12-30 02:39:00,
2013-12-29 21:44:00,66.6,65.1,29.88,North,360,0.0,5.0,95,0.00,,,0.15,VWS V14.01,2013-12-30 02:44:00,
2013-12-29 21:49:00,66.6,65.1,29.88,North,360,0.0,5.0,95,0.00,,,0.15,VWS V14.01,2013-12-30 02:49:00,
2013-12-29 21:54:00,66.4,64.9,29.88,North,360,3.0,5.0,95,0.00,,,0.15,VWS V14.01,2013-12-30 02:54:00,
2013-12-29 21:59:00,66.4,64.6,29.88,WNW,298,3.0,5.0,94,0.00,,,0.15,VWS V14.01,2013-12-30 02:59:00,
2013-12-29 22:00:00,64.5,62.4,29.89,North,360,0.0,5.0,93,0.00,,,0.15,VWS V14.01,2013-12-30 03:00:00,
2013-12-29 22:04:00,66.3,64.5,29.89,NW,325,1.0,7.0,94,0.00,,,0.15,VWS V14.01,2013-12-30 03:04:00,
2013-12-29 22:09:00,66.1,64.0,29.89,NW,325,2.0,7.0,93,0.00,,,0.15,VWS V14.01,2013-12-30 03:09:00,
2013-12-29 22:14:00,66.1,64.0,29.89,NNW,327,0.0,7.0,93,0.00,,,0.15,VWS V14.01,2013-12-30 03:14:00,
2013-12-29 22:19:00,66.0,63.9,29.89,NW,325,3.0,7.0,93,0.00,,,0.15,VWS V14.01,2013-12-30 03:19:00,
2013-12-29 22:24:00,65.8,63.7,29.89,WNW,288,1.0,7.0,93,0.00,,,0.15,VWS V14.01,2013-12-30 03:24:00,
2013-12-29 22:29:00,65.6,63.5,29.89,WNW,292,2.0,7.0,93,0.00,,,0.15,VWS V14.01,2013-12-30 03:29:00,
2013-12-29 22:30:00,63.7,61.9,29.89,WNW,303,0.0,4.0,94,0.00,,,0.15,VWS V14.01,2013-12-30 03:30:00,
2013-12-29 22:34:00,65.3,62.9,29.89,North,360,3.0,4.0,92,0.00,,,0.15,VWS V14.01,2013-12-30 03:34:00,
2013-12-29 22:39:00,65.2,62.8,29.89,NW,313,2.0,4.0,92,0.00,,,0.15,VWS V14.01,2013-12-30 03:39:00,
2013-12-29 22:44:00,65.0,62.6,29.89,NW,311,1.0,4.0,92,0.00,,,0.15,VWS V14.01,2013-12-30 03:44:00,
2013-12-29 22:49:00,64.8,62.4,29.89,North,360,1.0,4.0,92,0.00,,,0.15,VWS V14.01,2013-12-30 03:49:00,
2013-12-29 22:54:00,64.7,62.3,29.89,NW,306,2.0,5.0,92,0.00,,,0.15,VWS V14.01,2013-12-30 03:54:00,
2013-12-29 22:59:00,64.5,62.1,29.89,NW,306,0.0,5.0,92,0.00,,,0.15,VWS V14.01,2013-12-30 03:59:00,
2013-12-29 23:00:00,63.1,61.7,29.90,NW,304,0.0,3.0,95,0.00,,,0.15,VWS V14.01,2013-12-30 04:00:00,
2013-12-29 23:04:00,64.3,62.2,29.89,North,360,0.0,3.0,93,0.00,,,0.15,VWS V14.01,2013-12-30 04:04:00,
2013-12-29 23:09:00,64.2,62.1,29.89,NW,305,0.0,4.0,93,0.00,,,0.15,VWS V14.01,2013-12-30 04:09:00,
2013-12-29 23:14:00,64.2,62.1,29.89,NW,304,2.0,4.0,93,0.00,,,0.15,VWS V14.01,2013-12-30 04:14:00,
2013-12-29 23:19:00,64.0,61.9,29.89,NW,304,0.0,4.0,93,0.00,,,0.15,VWS V14.01,2013-12-30 04:19:00,
2013-12-29 23:24:00,63.9,62.1,29.89,NW,304,2.0,4.0,94,0.00,,,0.15,VWS V14.01,2013-12-30 04:24:00,
2013-12-29 23:29:00,63.9,62.1,29.89,NW,304,0.0,4.0,94,0.00,,,0.15,VWS V14.01,2013-12-30 04:29:00,
2013-12-29 23:30:00,62.7,61.5,29.90,WNW,298,0.0,2.0,96,0.00,,,0.00,VWS V14.01,2013-12-30 04:30:00,
2013-12-29 23:34:00,63.7,62.0,29.89,NW,304,0.0,3.0,94,0.00,,,0.15,VWS V14.01,2013-12-30 04:34:00,
2013-12-29 23:39:00,63.5,61.8,29.89,NW,304,0.0,3.0,94,0.00,,,0.15,VWS V14.01,2013-12-30 04:39:00,
2013-12-29 23:44:00,63.4,62.0,29.89,NW,304,0.0,3.0,95,0.00,,,0.15,VWS V14.01,2013-12-30 04:44:00,
2013-12-29 23:49:00,63.4,62.0,29.88,North,360,0.0,3.0,95,0.00,,,0.15,VWS V14.01,2013-12-30 04:49:00,
2013-12-29 23:54:00,63.4,62.0,29.88,North,360,2.0,3.0,95,0.00,,,0.15,VWS V14.01,2013-12-30 04:54:00,
2013-12-29 23:59:00,63.2,61.8,29.88,NW,304,0.0,3.0,95,0.00,,,0.15,VWS V14.01,2013-12-30 04:59:00,